Time;durP1;ratioP1;P1;durP2;ratioP2;P2;SDS_P1;SDS_P2;PMS_P1;PMS_P2;Temp;Humidity;BMP_temperature;BMP_pressure;BME280_temperature;BME280_humidity;BME280_pressure;Samples;Min_cycle;Max_cycle;Signal;HPM_P1;HPM_P2
2022/09/30 00:01:07;;;;;;;5.38;3.22;;;12.10;56.40;;;;;;4987819;28;20061;-50
2022/09/30 00:03:35;;;;;;;7.07;3.45;;;12.10;56.40;;;;;;4988269;28;20057;-47
2022/09/30 00:06:06;;;;;;;5.55;2.97;;;12.10;56.40;;;;;;4988606;28;20072;-51
2022/09/30 00:08:33;;;;;;;5.43;3.00;;;12.00;56.40;;;;;;4988768;28;20602;-50
2022/09/30 00:11:03;;;;;;;7.57;3.10;;;12.00;56.40;;;;;;4989919;28;20425;-50
2022/09/30 00:13:31;;;;;;;6.35;3.25;;;12.00;56.40;;;;;;4987277;28;20406;-48
2022/09/30 00:16:00;;;;;;;6.00;3.03;;;12.00;56.40;;;;;;4985376;28;20058;-51
2022/09/30 00:18:28;;;;;;;4.65;2.78;;;12.00;56.50;;;;;;4989615;28;20513;-46
2022/09/30 00:20:55;;;;;;;4.35;3.03;;;12.00;56.50;;;;;;4985392;28;20054;-50
2022/09/30 00:23:24;;;;;;;8.95;3.13;;;11.90;56.40;;;;;;4986571;28;20058;-48
2022/09/30 00:25:57;;;;;;;3.63;2.72;;;11.90;56.50;;;;;;4984862;28;20510;-50
2022/09/30 00:28:24;;;;;;;7.97;3.08;;;11.90;57.00;;;;;;4988309;28;20050;-50
2022/09/30 00:30:51;;;;;;;4.47;3.20;;;11.90;56.60;;;;;;4986933;28;20050;-52
2022/09/30 00:33:20;;;;;;;5.55;3.10;;;11.80;56.60;;;;;;4987926;28;20050;-49
2022/09/30 00:35:47;;;;;;;5.50;3.22;;;11.90;56.60;;;;;;4985771;28;20061;-45
2022/09/30 00:38:14;;;;;;;4.47;2.83;;;11.80;56.60;;;;;;4986294;28;20061;-51
2022/09/30 00:40:41;;;;;;;6.93;3.03;;;11.80;56.60;;;;;;4988948;28;20069;-52
2022/09/30 00:43:14;;;;;;;5.65;3.05;;;11.80;56.60;;;;;;4986799;28;20050;-51
2022/09/30 00:45:49;;;;;;;4.60;3.05;;;11.80;56.60;;;;;;4983092;28;20046;-48
2022/09/30 00:48:23;;;;;;;6.00;3.70;;;11.70;56.60;;;;;;4988323;28;20517;-49
2022/09/30 00:50:54;;;;;;;;;;;11.70;56.50;;;;;;4988262;28;20126;-51
2022/09/30 00:53:28;;;;;;;3.88;2.90;;;11.70;56.50;;;;;;4986480;28;19933;-51
2022/09/30 00:56:00;;;;;;;5.82;2.78;;;11.70;56.20;;;;;;4981223;28;20057;-48
2022/09/30 00:58:33;;;;;;;7.65;3.15;;;11.60;56.20;;;;;;4986103;28;20061;-48
2022/09/30 01:01:01;;;;;;;6.07;3.33;;;11.60;56.20;;;;;;4986135;28;20065;-41
2022/09/30 01:03:31;;;;;;;5.10;3.40;;;11.60;56.30;;;;;;4978891;28;20410;-45
2022/09/30 01:05:59;;;;;;;6.05;3.22;;;11.50;56.30;;;;;;4980780;28;20495;-41
2022/09/30 01:08:27;;;;;;;5.47;3.28;;;11.50;56.40;;;;;;4980856;28;20077;-42
2022/09/30 01:10:55;;;;;;;4.82;3.30;;;11.50;56.50;;;;;;4980047;28;20050;-40
2022/09/30 01:13:26;;;;;;;6.20;3.50;;;11.50;56.50;;;;;;4982793;28;20061;-39
2022/09/30 01:16:06;;;;;;;4.70;2.78;;;11.40;56.50;;;;;;4977674;28;20074;-41
2022/09/30 01:18:45;;;;;;;4.68;2.95;;;11.40;56.50;;;;;;4981068;28;20057;-41
2022/09/30 01:21:51;;;;;;;6.22;3.20;;;11.40;56.50;;;;;;4978214;28;20061;-40
2022/09/30 01:24:47;;;;;;;4.53;3.30;;;11.30;56.50;;;;;;4981825;28;20050;-39
2022/09/30 01:27:43;;;;;;;4.90;3.05;;;11.30;56.40;;;;;;4980171;28;20046;-40
2022/09/30 01:30:18;;;;;;;7.15;3.00;;;11.30;56.50;;;;;;4977498;28;20584;-42
2022/09/30 01:33:13;;;;;;;4.07;3.10;;;11.30;56.50;;;;;;4982691;28;20050;-40
2022/09/30 01:35:56;;;;;;;3.53;2.97;;;11.30;56.60;;;;;;4983966;28;20050;-39
2022/09/30 01:38:28;;;;;;;6.13;3.10;;;11.20;56.40;;;;;;4979516;28;20062;-43
2022/09/30 01:41:05;;;;;;;3.90;2.72;;;11.20;56.40;;;;;;4985529;28;20058;-40
2022/09/30 01:43:44;;;;;;;5.93;2.85;;;11.20;56.50;;;;;;4985839;28;20403;-41
2022/09/30 01:46:20;;;;;;;6.75;2.65;;;11.10;56.40;;;;;;4983517;28;20051;-40
2022/09/30 01:48:56;;;;;;;4.32;3.10;;;11.10;56.50;;;;;;4986319;28;20069;-38
2022/09/30 01:51:30;;;;;;;4.35;2.97;;;11.10;56.50;;;;;;4987470;28;20062;-41
2022/09/30 01:54:00;;;;;;;;;;;11.10;56.40;;;;;;4985774;28;20050;-38
2022/09/30 01:56:34;;;;;;;5.05;3.15;;;11.10;56.50;;;;;;4981377;28;20275;-40
2022/09/30 01:59:06;;;;;;;4.18;3.00;;;11.00;56.30;;;;;;4981073;28;20136;-45
2022/09/30 02:01:39;;;;;;;5.68;2.58;;;11.00;56.40;;;;;;4984656;28;20050;-41
2022/09/30 02:04:14;;;;;;;5.40;3.47;;;11.00;56.60;;;;;;4984005;28;20054;-41
2022/09/30 02:06:48;;;;;;;4.30;2.85;;;11.00;56.70;;;;;;4987803;28;20054;-49
2022/09/30 02:09:21;;;;;;;4.55;2.70;;;11.00;56.80;;;;;;4992388;28;20057;-51
2022/09/30 02:11:49;;;;;;;3.03;2.42;;;10.90;56.80;;;;;;4990332;28;20050;-48
2022/09/30 02:14:21;;;;;;;4.05;2.40;;;10.90;56.80;;;;;;4989938;28;20057;-50
2022/09/30 02:16:52;;;;;;;8.65;3.03;;;10.90;56.80;;;;;;4986427;28;20050;-50
2022/09/30 02:19:24;;;;;;;3.45;2.55;;;10.90;56.80;;;;;;4988903;28;20059;-51
2022/09/30 02:21:56;;;;;;;4.75;2.85;;;10.80;56.80;;;;;;4989398;28;20054;-51
2022/09/30 02:24:26;;;;;;;4.03;2.60;;;10.90;56.80;;;;;;4991423;28;20069;-51
2022/09/30 02:26:56;;;;;;;4.32;2.90;;;10.80;56.70;;;;;;4989872;28;20061;-51
2022/09/30 02:29:27;;;;;;;3.03;2.65;;;10.80;56.70;;;;;;4991414;28;20069;-51
2022/09/30 02:32:00;;;;;;;6.13;2.60;;;10.80;56.60;;;;;;4984870;28;20058;-44
2022/09/30 02:34:33;;;;;;;3.42;2.72;;;10.80;56.60;;;;;;4992336;28;20422;-51
2022/09/30 02:37:05;;;;;;;4.18;2.65;;;10.80;56.60;;;;;;4990884;28;20061;-51
2022/09/30 02:39:41;;;;;;;3.35;2.40;;;10.80;56.60;;;;;;4991815;28;20046;-51
2022/09/30 02:42:14;;;;;;;3.63;2.60;;;10.70;56.50;;;;;;4992119;28;20483;-50
2022/09/30 02:44:41;;;;;;;2.53;2.17;;;10.70;56.60;;;;;;4990624;28;20061;-49
2022/09/30 02:47:13;;;;;;;4.47;2.35;;;10.70;56.50;;;;;;4990430;28;20050;-51
2022/09/30 02:49:49;;;;;;;4.05;2.60;;;10.70;56.50;;;;;;4992670;28;20062;-49
2022/09/30 02:52:26;;;;;;;3.63;2.65;;;10.60;56.40;;;;;;4992206;28;20142;-51
2022/09/30 02:55:04;;;;;;;3.78;2.72;;;10.60;56.40;;;;;;4991463;28;20054;-46
2022/09/30 02:57:39;;;;;;;4.30;2.60;;;10.60;56.40;;;;;;4992432;28;20061;-49
2022/09/30 03:00:07;;;;;;;6.30;2.67;;;10.60;56.40;;;;;;4991266;28;20050;-46
2022/09/30 03:02:35;;;;;;;4.70;2.70;;;10.50;56.40;;;;;;4991267;28;20062;-49
2022/09/30 03:05:04;;;;;;;3.60;2.50;;;10.50;56.40;;;;;;4992245;28;20065;-49
2022/09/30 03:07:32;;;;;;;3.08;2.50;;;10.50;56.40;;;;;;4992879;28;20065;-51
2022/09/30 03:09:59;;;;;;;2.30;2.10;;;10.40;56.50;;;;;;4993084;28;20069;-52
2022/09/30 03:12:36;;;;;;;2.78;2.25;;;10.40;56.50;;;;;;4991504;28;20442;-51
2022/09/30 03:15:30;;;;;;;3.47;2.50;;;10.40;56.60;;;;;;4983102;28;20057;-46
2022/09/30 03:18:09;;;;;;;;;;;10.40;56.70;;;;;;4992194;28;20054;-46
2022/09/30 03:20:59;;;;;;;4.80;2.50;;;10.40;56.70;;;;;;4988381;28;19930;-44
2022/09/30 03:23:49;;;;;;;3.38;2.55;;;10.40;56.40;;;;;;4992266;28;20054;-48
2022/09/30 03:26:29;;;;;;;3.13;2.22;;;10.40;56.40;;;;;;4993175;28;20053;-50
2022/09/30 03:29:05;;;;;;;2.70;2.13;;;10.30;56.50;;;;;;4989400;28;20051;-51
2022/09/30 03:31:41;;;;;;;3.92;2.42;;;10.30;56.60;;;;;;4989315;28;20065;-50
2022/09/30 03:34:17;;;;;;;3.67;2.40;;;10.30;56.60;;;;;;4992490;28;20069;-50
2022/09/30 03:37:01;;;;;;;2.95;2.50;;;10.20;56.60;;;;;;4991397;28;20061;-48
2022/09/30 03:39:40;;;;;;;5.28;2.42;;;10.20;56.70;;;;;;4991370;28;20414;-46
2022/09/30 03:42:14;;;;;;;3.17;2.47;;;10.20;56.60;;;;;;4990837;28;20054;-50
2022/09/30 03:44:46;;;;;;;2.92;2.00;;;10.20;56.60;;;;;;4988235;28;20054;-51
2022/09/30 03:47:16;;;;;;;2.70;2.17;;;10.10;56.50;;;;;;4990616;28;20059;-51
2022/09/30 03:49:48;;;;;;;3.50;2.58;;;10.10;56.60;;;;;;4989450;28;20075;-51
2022/09/30 03:52:18;;;;;;;3.53;2.30;;;10.10;56.70;;;;;;4989213;28;20061;-52
2022/09/30 03:54:47;;;;;;;3.33;2.08;;;10.10;56.70;;;;;;4989006;28;20503;-52
2022/09/30 03:57:15;;;;;;;3.25;2.58;;;10.10;56.80;;;;;;4991070;28;20065;-50
2022/09/30 03:59:42;;;;;;;2.40;2.05;;;10.10;56.80;;;;;;4990219;28;20050;-51
2022/09/30 04:02:12;;;;;;;3.45;2.65;;;10.00;56.70;;;;;;4986621;28;20501;-52
2022/09/30 04:04:40;;;;;;;17.90;9.13;;;10.10;56.70;;;;;;4990828;28;20054;-49
2022/09/30 04:07:09;;;;;;;25.50;12.32;;;10.00;56.70;;;;;;4989797;28;20050;-49
2022/09/30 04:09:38;;;;;;;7.60;4.35;;;10.00;56.60;;;;;;4986257;28;20058;-50
2022/09/30 04:12:06;;;;;;;3.80;2.70;;;10.00;56.60;;;;;;4991660;28;20069;-45
2022/09/30 04:14:34;;;;;;;3.65;2.75;;;10.00;56.50;;;;;;4989071;28;20054;-50
2022/09/30 04:17:02;;;;;;;3.00;2.20;;;10.00;56.50;;;;;;4981726;28;20042;-46
2022/09/30 04:19:29;;;;;;;3.78;2.25;;;9.90;56.50;;;;;;4989349;28;20061;-51
2022/09/30 04:21:57;;;;;;;2.30;1.92;;;9.90;56.50;;;;;;4990731;28;20058;-51
2022/09/30 04:24:24;;;;;;;2.58;2.30;;;9.90;56.50;;;;;;4990431;28;20065;-51
2022/09/30 04:26:53;;;;;;;2.67;2.20;;;9.90;56.50;;;;;;4988215;28;20062;-45
2022/09/30 04:29:20;;;;;;;3.00;2.30;;;9.90;56.50;;;;;;4988538;28;20069;-51
2022/09/30 04:31:47;;;;;;;10.75;5.45;;;9.90;56.50;;;;;;4985484;28;20050;-51
2022/09/30 04:34:15;;;;;;;24.80;11.48;;;9.90;56.50;;;;;;4987465;28;20069;-51
2022/09/30 04:36:42;;;;;;;7.25;4.53;;;9.80;56.40;;;;;;4986319;28;20070;-51
2022/09/30 04:39:09;;;;;;;3.90;2.45;;;9.80;56.50;;;;;;4983524;28;20054;-49
2022/09/30 04:41:37;;;;;;;2.88;2.35;;;9.80;56.40;;;;;;4991122;28;20058;-49
2022/09/30 04:44:06;;;;;;;3.58;2.22;;;9.80;56.50;;;;;;4985584;28;20054;-50
2022/09/30 04:46:35;;;;;;;3.70;2.28;;;9.80;56.40;;;;;;4987682;28;20054;-51
2022/09/30 04:49:03;;;;;;;2.08;1.83;;;9.70;56.40;;;;;;4990057;28;20050;-51
2022/09/30 04:51:30;;;;;;;3.03;2.17;;;9.70;56.90;;;;;;4991932;28;20057;-49
2022/09/30 04:53:58;;;;;;;3.03;2.08;;;9.70;56.40;;;;;;4992324;28;20521;-51
2022/09/30 04:56:25;;;;;;;1.98;1.63;;;9.70;56.40;;;;;;4989093;28;20073;-50
2022/09/30 04:58:53;;;;;;;6.70;3.58;;;9.60;56.40;;;;;;4981263;28;20046;-51
2022/09/30 05:01:21;;;;;;;7.57;3.95;;;9.60;56.30;;;;;;4987990;28;20058;-45
2022/09/30 05:03:49;;;;;;;6.32;3.65;;;9.60;56.40;;;;;;4985839;28;20061;-48
2022/09/30 05:06:16;;;;;;;4.03;2.65;;;9.60;56.40;;;;;;4984261;28;20050;-50
2022/09/30 05:08:44;;;;;;;2.65;2.20;;;9.60;56.40;;;;;;4988258;28;20057;-51
2022/09/30 05:11:16;;;;;;;3.03;2.10;;;9.50;56.40;;;;;;4986234;28;20057;-51
2022/09/30 05:13:43;;;;;;;2.25;2.05;;;9.50;56.40;;;;;;4990753;28;20058;-49
2022/09/30 05:16:11;;;;;;;3.55;2.45;;;9.50;56.40;;;;;;4986902;28;20466;-50
2022/09/30 05:18:44;;;;;;;2.78;2.10;;;9.50;56.40;;;;;;4990785;28;20122;-51
2022/09/30 05:21:12;;;;;;;2.50;1.92;;;9.50;56.50;;;;;;4987313;28;20058;-51
2022/09/30 05:23:39;;;;;;;3.55;2.10;;;9.50;56.50;;;;;;4989246;28;20058;-52
2022/09/30 05:26:07;;;;;;;3.00;2.28;;;9.40;56.40;;;;;;4984298;28;20061;-47
2022/09/30 05:28:34;;;;;;;3.30;2.58;;;9.50;56.50;;;;;;4989045;28;20046;-46
2022/09/30 05:31:04;;;;;;;3.38;2.40;;;9.40;56.50;;;;;;4989297;28;20051;-48
2022/09/30 05:33:33;;;;;;;3.00;2.20;;;9.40;56.50;;;;;;4989956;28;20054;-48
2022/09/30 05:36:04;;;;;;;3.53;2.20;;;9.40;56.50;;;;;;4989217;28;20637;-50
2022/09/30 05:38:32;;;;;;;3.50;2.40;;;9.40;56.60;;;;;;4991299;28;20426;-51
2022/09/30 05:41:05;;;;;;;2.28;2.05;;;9.40;56.60;;;;;;4987573;28;20061;-51
2022/09/30 05:43:32;;;;;;;3.78;2.50;;;9.40;56.60;;;;;;4986970;28;20057;-47
2022/09/30 05:45:59;;;;;;;3.42;2.38;;;9.30;56.50;;;;;;4987015;28;20066;-47
2022/09/30 05:48:27;;;;;;;2.42;2.05;;;9.30;56.60;;;;;;4989402;28;20514;-49
2022/09/30 05:50:55;;;;;;;3.20;2.70;;;9.30;56.60;;;;;;4987829;28;20062;-49
2022/09/30 05:53:24;;;;;;;5.57;2.10;;;9.30;56.60;;;;;;4989188;28;20050;-51
2022/09/30 05:55:52;;;;;;;2.90;2.17;;;9.30;56.60;;;;;;4985159;28;20054;-48
2022/09/30 05:58:20;;;;;;;2.75;1.98;;;9.30;56.70;;;;;;4990383;28;20055;-50
2022/09/30 06:00:48;;;;;;;2.65;2.10;;;9.30;56.70;;;;;;4983604;28;20062;-51
2022/09/30 06:03:16;;;;;;;4.60;2.70;;;9.30;56.70;;;;;;4986439;28;20056;-49
2022/09/30 06:05:44;;;;;;;2.75;2.08;;;9.30;56.70;;;;;;4987338;28;20474;-49
2022/09/30 06:08:12;;;;;;;2.90;2.05;;;9.30;56.70;;;;;;4988373;28;20054;-50
2022/09/30 06:10:42;;;;;;;3.08;2.33;;;9.20;56.70;;;;;;4980458;28;20058;-48
2022/09/30 06:13:10;;;;;;;2.60;2.25;;;9.30;56.80;;;;;;4988354;28;20054;-51
2022/09/30 06:15:40;;;;;;;4.65;2.75;;;9.30;56.80;;;;;;4984608;28;20426;-50
2022/09/30 06:18:07;;;;;;;3.30;2.05;;;9.30;56.80;;;;;;4987393;28;20059;-52
2022/09/30 06:20:35;;;;;;;2.90;2.47;;;9.20;56.80;;;;;;4990906;28;20065;-48
2022/09/30 06:23:02;;;;;;;2.75;2.20;;;9.30;56.90;;;;;;4992363;28;20058;-46
2022/09/30 06:25:30;;;;;;;4.30;2.33;;;9.30;57.00;;;;;;4989659;28;20050;-48
2022/09/30 06:27:59;;;;;;;2.45;2.22;;;9.30;57.00;;;;;;4993930;28;20059;-49
2022/09/30 06:30:27;;;;;;;3.97;2.25;;;9.30;57.00;;;;;;4992036;28;20054;-47
2022/09/30 06:32:56;;;;;;;2.78;2.45;;;9.30;57.10;;;;;;4994171;28;20050;-48
2022/09/30 06:35:27;;;;;;;3.30;2.40;;;9.30;57.20;;;;;;4990642;28;20057;-52
2022/09/30 06:37:54;;;;;;;4.50;1.95;;;9.30;57.20;;;;;;4990685;28;20054;-51
2022/09/30 06:40:22;;;;;;;2.75;2.10;;;9.30;57.20;;;;;;4991655;28;20054;-49
2022/09/30 06:42:49;;;;;;;4.70;1.95;;;9.30;57.30;;;;;;4989335;28;20069;-50
2022/09/30 06:45:21;;;;;;;1.98;1.77;;;9.30;57.30;;;;;;4988528;28;20054;-50
2022/09/30 06:47:50;;;;;;;3.00;2.08;;;9.30;57.30;;;;;;4994863;28;20058;-49
2022/09/30 06:50:18;;;;;;;30.17;14.07;;;9.40;57.40;;;;;;4997346;28;20066;-51
2022/09/30 06:52:47;;;;;;;20.90;10.02;;;9.40;57.50;;;;;;4993676;28;20054;-50
2022/09/30 06:55:14;;;;;;;9.70;4.43;;;9.40;57.50;;;;;;4987270;28;20050;-50
2022/09/30 06:57:42;;;;;;;4.07;2.92;;;9.50;57.60;;;;;;4987076;28;20054;-48
2022/09/30 07:00:10;;;;;;;4.03;2.25;;;9.50;57.60;;;;;;4988317;28;20089;-47
2022/09/30 07:02:39;;;;;;;3.22;1.92;;;9.50;57.60;;;;;;4989266;28;20087;-49
2022/09/30 07:05:08;;;;;;;2.92;2.15;;;9.50;57.60;;;;;;4971764;28;20062;-52
2022/09/30 07:07:35;;;;;;;12.00;5.70;;;9.50;57.60;;;;;;4989382;28;20422;-44
2022/09/30 07:10:03;;;;;;;9.68;4.75;;;9.60;57.70;;;;;;4988852;28;20050;-49
2022/09/30 07:12:31;;;;;;;4.63;2.97;;;9.60;57.70;;;;;;4989291;28;20487;-49
2022/09/30 07:14:59;;;;;;;3.67;2.38;;;9.60;57.80;;;;;;4990365;28;20399;-51
2022/09/30 07:17:26;;;;;;;2.60;2.15;;;9.70;57.80;;;;;;4990730;28;20058;-50
2022/09/30 07:19:55;;;;;;;3.30;2.40;;;9.70;57.90;;;;;;4989298;28;20058;-51
2022/09/30 07:22:28;;;;;;;3.10;2.13;;;9.70;58.00;;;;;;4989378;28;20062;-51
2022/09/30 07:24:56;;;;;;;2.73;2.20;;;9.70;58.50;;;;;;4991213;28;20340;-46
2022/09/30 07:27:24;;;;;;;2.30;2.00;;;9.80;58.00;;;;;;4989516;28;20403;-51
2022/09/30 07:29:51;;;;;;;7.28;2.13;;;9.80;58.10;;;;;;4991806;28;20061;-50
2022/09/30 07:32:20;;;;;;;2.35;2.15;;;9.80;58.10;;;;;;4987709;28;20054;-48
2022/09/30 07:34:47;;;;;;;2.85;2.20;;;9.90;58.10;;;;;;4991246;28;20074;-50
2022/09/30 07:37:18;;;;;;;3.92;2.42;;;9.90;58.20;;;;;;4989929;28;20514;-50
2022/09/30 07:39:48;;;;;;;3.45;2.17;;;9.90;58.20;;;;;;4988360;28;20054;-51
2022/09/30 07:42:19;;;;;;;2.53;1.88;;;10.00;58.30;;;;;;4989813;28;20065;-50
2022/09/30 07:44:46;;;;;;;2.72;2.03;;;10.00;58.30;;;;;;4986958;28;20058;-49
2022/09/30 07:47:14;;;;;;;2.42;2.00;;;10.00;58.40;;;;;;4984007;28;20046;-46
2022/09/30 07:49:42;;;;;;;7.28;3.58;;;10.10;58.40;;;;;;4990164;28;20054;-51
2022/09/30 07:52:11;;;;;;;5.28;3.20;;;10.10;59.00;;;;;;4980065;28;20050;-52
2022/09/30 07:54:41;;;;;;;3.58;2.58;;;10.20;58.70;;;;;;4986470;28;20058;-49
2022/09/30 07:57:08;;;;;;;2.85;2.05;;;10.20;58.80;;;;;;4988124;28;20061;-45
2022/09/30 07:59:38;;;;;;;2.28;1.90;;;10.30;58.90;;;;;;4988958;28;20077;-48
2022/09/30 08:02:07;;;;;;;4.10;2.13;;;10.30;59.50;;;;;;4986638;28;20494;-51
2022/09/30 08:04:34;;;;;;;3.47;2.38;;;10.40;59.20;;;;;;4990599;28;20065;-51
2022/09/30 08:07:02;;;;;;;3.80;2.17;;;10.40;59.30;;;;;;4987321;28;20589;-51
2022/09/30 08:09:30;;;;;;;2.08;1.80;;;10.50;59.50;;;;;;4984695;28;20486;-50
2022/09/30 08:11:59;;;;;;;2.03;1.80;;;10.60;59.60;;;;;;4988166;28;20054;-50
2022/09/30 08:14:27;;;;;;;2.45;1.67;;;10.60;59.60;;;;;;4990913;28;20526;-44
2022/09/30 08:16:57;;;;;;;2.17;1.75;;;10.70;59.60;;;;;;4988535;28;20058;-50
2022/09/30 08:19:25;;;;;;;2.65;1.70;;;10.70;59.60;;;;;;4989701;28;20422;-52
2022/09/30 08:21:53;;;;;;;3.78;2.20;;;10.80;59.70;;;;;;4990211;28;20066;-52
2022/09/30 08:24:20;;;;;;;4.85;2.10;;;10.80;59.80;;;;;;4991585;28;20621;-49
2022/09/30 08:26:48;;;;;;;2.42;1.80;;;10.90;59.80;;;;;;4990171;28;20058;-50
2022/09/30 08:29:16;;;;;;;3.65;1.88;;;10.90;59.80;;;;;;4989774;28;20061;-51
2022/09/30 08:31:44;;;;;;;1.60;1.50;;;11.00;59.90;;;;;;4989705;28;20054;-49
2022/09/30 08:34:11;;;;;;;2.60;1.90;;;11.10;59.90;;;;;;4990984;28;20051;-52
2022/09/30 08:36:38;;;;;;;2.25;1.80;;;11.10;60.00;;;;;;4990922;28;20054;-51
2022/09/30 08:39:05;;;;;;;2.47;1.73;;;11.20;60.00;;;;;;4988777;28;20054;-47
2022/09/30 08:41:56;;;;;;;2.60;1.70;;;11.30;60.10;;;;;;4991241;28;20582;-51
2022/09/30 08:44:39;;;;;;;4.60;2.10;;;11.30;60.30;;;;;;4986760;28;20069;-48
2022/09/30 08:47:19;;;;;;;2.05;1.67;;;11.40;60.40;;;;;;4986392;28;20065;-51
2022/09/30 08:49:58;;;;;;;2.85;1.83;;;11.50;60.50;;;;;;4988501;28;20080;-49
2022/09/30 08:52:29;;;;;;;2.50;2.00;;;11.60;60.70;;;;;;4988074;28;20054;-51
2022/09/30 08:54:57;;;;;;;5.45;1.85;;;11.60;60.60;;;;;;4987338;28;20062;-50
2022/09/30 08:57:28;;;;;;;2.58;1.80;;;11.70;60.60;;;;;;4986651;28;20065;-50
2022/09/30 09:00:00;;;;;;;2.47;1.75;;;11.70;60.60;;;;;;4988361;28;20054;-49
2022/09/30 09:02:31;;;;;;;2.78;2.00;;;11.80;60.70;;;;;;4986165;28;20490;-50
2022/09/30 09:05:02;;;;;;;3.83;1.95;;;11.90;60.80;;;;;;4988089;28;20058;-46
2022/09/30 09:07:40;;;;;;;2.95;1.98;;;12.00;61.70;;;;;;4988701;28;20069;-50
2022/09/30 09:10:19;;;;;;;3.35;2.08;;;12.00;61.10;;;;;;4987968;28;20050;-49
2022/09/30 09:12:55;;;;;;;2.83;2.20;;;12.10;61.10;;;;;;4985934;28;20483;-50
2022/09/30 09:15:37;;;;;;;4.03;2.30;;;12.10;61.20;;;;;;4985274;28;20046;-50
2022/09/30 09:18:37;;;;;;;3.90;2.30;;;12.20;61.40;;;;;;4989594;28;20050;-50
2022/09/30 09:21:22;;;;;;;3.45;2.08;;;12.30;61.70;;;;;;4987826;28;20058;-50
2022/09/30 09:23:50;;;;;;;;;;;12.40;61.70;;;;;;4988449;28;20058;-50
2022/09/30 09:26:17;;;;;;;3.30;1.95;;;12.50;61.70;;;;;;4984088;28;19929;-51
2022/09/30 09:28:56;;;;;;;3.38;2.30;;;12.60;61.70;;;;;;4985500;28;20073;-48
2022/09/30 09:31:25;;;;;;;3.10;2.35;;;12.60;62.10;;;;;;4984821;28;20058;-49
2022/09/30 09:33:59;;;;;;;6.20;2.30;;;12.70;62.20;;;;;;4985832;28;20054;-48
2022/09/30 09:36:35;;;;;;;2.83;2.10;;;12.80;62.30;;;;;;4983761;28;20057;-50
2022/09/30 09:39:17;;;;;;;2.60;1.83;;;12.90;62.20;;;;;;4986628;28;20054;-49
2022/09/30 09:41:54;;;;;;;4.55;2.20;;;13.00;62.10;;;;;;4985210;28;20046;-46
2022/09/30 09:44:28;;;;;;;4.97;2.40;;;13.00;62.20;;;;;;4986009;28;20054;-47
2022/09/30 09:47:04;;;;;;;5.80;2.15;;;13.10;62.60;;;;;;4985428;28;20418;-49
2022/09/30 09:49:37;;;;;;;3.00;2.08;;;13.20;62.80;;;;;;4987503;28;20491;-50
2022/09/30 09:52:47;;;;;;;5.68;1.80;;;13.30;62.70;;;;;;4986090;28;20046;-51
2022/09/30 09:55:16;;;;;;;3.55;1.90;;;13.40;62.40;;;;;;4989070;28;20065;-51
2022/09/30 09:57:44;;;;;;;4.03;1.70;;;13.50;62.40;;;;;;4989447;28;20054;-51
2022/09/30 10:03:18;;;;;;;3.20;1.80;;;13.60;62.00;;;;;;4995399;28;20061;-47
2022/09/30 10:05:46;;;;;;;5.38;1.90;;;13.70;61.80;;;;;;4988690;28;20062;-50
2022/09/30 10:08:16;;;;;;;6.93;1.75;;;13.80;61.80;;;;;;4990751;28;20054;-49
2022/09/30 10:10:47;;;;;;;3.90;1.48;;;13.90;61.30;;;;;;4990823;28;20061;-50
2022/09/30 10:13:21;;;;;;;3.75;1.77;;;14.00;61.30;;;;;;4990807;28;20494;-49
2022/09/30 10:15:49;;;;;;;4.57;1.60;;;14.10;61.20;;;;;;4989216;28;20058;-50
2022/09/30 10:18:21;;;;;;;2.05;1.13;;;14.20;60.00;;;;;;4997370;28;20061;-50
2022/09/30 10:20:54;;;;;;;2.58;0.98;;;14.30;59.10;;;;;;4995523;28;20418;-50
2022/09/30 10:23:25;;;;;;;2.28;0.80;;;14.40;58.60;;;;;;4993875;28;20050;-47
2022/09/30 10:26:03;;;;;;;3.40;1.00;;;14.40;58.00;;;;;;4993940;28;20058;-50
2022/09/30 10:28:33;;;;;;;2.63;1.08;;;14.50;57.90;;;;;;4994688;28;20058;-51
2022/09/30 10:31:06;;;;;;;5.13;1.25;;;14.60;57.50;;;;;;4993601;28;20054;-52
2022/09/30 10:33:43;;;;;;;1.67;1.25;;;14.60;56.90;;;;;;4994077;28;20373;-48
2022/09/30 10:36:15;;;;;;;8.82;1.80;;;14.70;55.90;;;;;;4990765;28;20061;-51
2022/09/30 10:38:58;;;;;;;2.90;1.25;;;14.80;55.80;;;;;;4993279;28;20058;-51
2022/09/30 10:41:27;;;;;;;2.70;1.45;;;14.80;55.70;;;;;;4991722;28;20053;-49
2022/09/30 10:43:58;;;;;;;2.25;1.13;;;14.90;55.60;;;;;;4994615;28;20682;-48
2022/09/30 10:46:28;;;;;;;2.35;1.10;;;15.00;55.40;;;;;;4993627;28;20062;-49
2022/09/30 10:48:59;;;;;;;1.85;1.30;;;15.10;55.40;;;;;;4993127;28;20054;-49
2022/09/30 10:51:30;;;;;;;3.80;1.20;;;15.10;54.60;;;;;;4993389;28;20050;-50
2022/09/30 10:53:57;;;;;;;1.77;0.88;;;15.20;54.50;;;;;;4990558;28;20051;-51
2022/09/30 10:56:43;;;;;;;2.28;0.95;;;15.20;54.20;;;;;;4992790;28;20061;-49
2022/09/30 10:59:21;;;;;;;2.28;0.80;;;15.30;53.40;;;;;;4991500;28;20054;-50
2022/09/30 11:01:53;;;;;;;2.47;0.95;;;15.40;53.40;;;;;;4990490;28;20050;-48
2022/09/30 11:04:28;;;;;;;3.35;0.80;;;15.40;53.20;;;;;;4991597;28;20058;-48
2022/09/30 11:07:00;;;;;;;1.08;0.50;;;15.50;52.30;;;;;;4991390;28;20059;-50
2022/09/30 11:09:36;;;;;;;1.33;0.60;;;15.50;52.20;;;;;;4992040;28;20054;-47
2022/09/30 11:12:14;;;;;;;3.28;0.70;;;15.50;51.90;;;;;;4991149;28;20054;-50
2022/09/30 11:14:47;;;;;;;4.22;0.55;;;15.60;52.00;;;;;;4989995;28;20491;-49
2022/09/30 11:17:27;;;;;;;0.95;0.68;;;15.70;51.90;;;;;;4987189;28;20065;-49
2022/09/30 11:20:07;;;;;;;2.65;0.80;;;15.70;51.50;;;;;;4985391;28;20741;-54
2022/09/30 11:22:46;;;;;;;2.67;0.80;;;15.80;51.40;;;;;;4987787;28;20081;-50
2022/09/30 11:25:15;;;;;;;1.20;0.60;;;15.80;50.80;;;;;;4991768;28;20509;-53
2022/09/30 11:28:14;;;;;;;2.58;1.00;;;15.80;51.30;;;;;;4992285;28;20054;-53
2022/09/30 11:30:48;;;;;;;1.77;0.77;;;15.90;51.20;;;;;;4976584;28;20054;-54
2022/09/30 11:33:33;;;;;;;1.25;0.90;;;15.90;51.30;;;;;;4991034;28;20054;-46
2022/09/30 11:36:09;;;;;;;2.72;1.20;;;16.00;51.20;;;;;;4989580;28;20081;-52
2022/09/30 11:39:09;;;;;;;2.28;0.90;;;16.00;51.00;;;;;;4986640;28;20047;-53
2022/09/30 11:41:39;;;;;;;5.63;1.10;;;16.10;50.70;;;;;;4988923;28;20057;-46
2022/09/30 11:44:22;;;;;;;5.00;1.33;;;16.20;51.00;;;;;;4990800;28;20499;-53
2022/09/30 11:47:33;;;;;;;1.60;0.90;;;16.20;50.50;;;;;;4988436;28;20054;-54
2022/09/30 11:50:36;;;;;;;3.90;0.65;;;16.30;50.60;;;;;;4989776;28;20058;-50
2022/09/30 11:53:17;;;;;;;2.63;0.75;;;16.30;50.40;;;;;;4987958;28;20062;-54
2022/09/30 11:56:01;;;;;;;2.45;0.60;;;16.40;50.40;;;;;;4991157;28;20050;-53
2022/09/30 11:58:34;;;;;;;2.85;0.93;;;16.50;50.40;;;;;;4988082;28;20495;-50
2022/09/30 12:01:09;;;;;;;2.25;0.90;;;16.50;50.30;;;;;;4985133;28;20055;-54
2022/09/30 12:03:42;;;;;;;1.65;0.50;;;16.60;50.30;;;;;;4990905;28;20054;-53
2022/09/30 12:06:15;;;;;;;1.52;0.70;;;16.60;49.90;;;;;;4991646;28;20127;-53
2022/09/30 12:08:49;;;;;;;3.03;0.90;;;16.70;49.80;;;;;;4994781;28;20062;-54
2022/09/30 12:11:21;;;;;;;3.97;1.35;;;16.70;50.00;;;;;;4988284;28;20065;-51
2022/09/30 12:13:53;;;;;;;1.25;0.75;;;16.80;50.00;;;;;;4991760;28;20054;-48
2022/09/30 12:16:23;;;;;;;1.85;0.75;;;16.80;50.00;;;;;;4993697;28;20407;-53
2022/09/30 12:18:56;;;;;;;1.58;0.85;;;16.90;49.80;;;;;;4988252;28;20061;-49
2022/09/30 12:21:29;;;;;;;2.92;0.90;;;16.90;49.70;;;;;;4989426;28;20054;-52
2022/09/30 12:24:04;;;;;;;2.83;1.03;;;17.00;49.60;;;;;;4990220;28;20058;-53
2022/09/30 12:26:33;;;;;;;2.42;0.88;;;17.10;49.60;;;;;;4989626;28;20606;-50
2022/09/30 12:32:15;;;;;;;2.30;0.70;;;17.20;49.30;;;;;;4993641;28;20053;-53
2022/09/30 12:35:00;;;;;;;2.70;1.13;;;17.20;48.90;;;;;;4948930;28;20054;-54
2022/09/30 12:37:46;;;;;;;4.88;1.60;;;17.30;49.00;;;;;;4991677;28;20061;-52
2022/09/30 12:40:39;;;;;;;5.72;1.60;;;17.40;48.80;;;;;;4992178;28;20653;-51
2022/09/30 12:43:31;;;;;;;4.95;1.83;;;17.40;48.60;;;;;;4991330;28;20061;-51
2022/09/30 12:46:09;;;;;;;2.35;1.10;;;17.50;48.70;;;;;;4990813;28;20061;-48
2022/09/30 12:48:40;;;;;;;1.63;0.70;;;17.50;48.70;;;;;;4994316;28;20073;-51
2022/09/30 12:51:08;;;;;;;1.40;0.60;;;17.60;48.20;;;;;;4993245;28;20046;-51
2022/09/30 12:53:38;;;;;;;3.13;0.82;;;17.60;48.20;;;;;;4993094;28;20065;-44
2022/09/30 12:56:10;;;;;;;1.95;0.93;;;17.60;48.30;;;;;;4993480;28;20054;-50
2022/09/30 12:58:48;;;;;;;2.95;0.90;;;17.70;48.00;;;;;;4996904;28;20054;-52
2022/09/30 13:01:18;;;;;;;4.15;0.88;;;17.70;48.00;;;;;;4990914;28;20062;-52
2022/09/30 13:03:49;;;;;;;0.63;0.40;;;17.80;48.20;;;;;;4992115;28;20058;-52
2022/09/30 13:06:19;;;;;;;2.38;0.90;;;17.90;48.00;;;;;;4994846;28;20069;-52
2022/09/30 13:08:49;;;;;;;2.10;0.80;;;17.90;47.70;;;;;;4993082;28;20058;-51
2022/09/30 13:11:36;;;;;;;2.28;0.80;;;17.90;47.70;;;;;;4986013;28;20057;-53
2022/09/30 13:14:23;;;;;;;2.55;0.70;;;18.00;47.30;;;;;;4991387;28;20058;-51
2022/09/30 13:17:25;;;;;;;3.45;0.75;;;18.00;47.10;;;;;;4986417;28;20390;-46
2022/09/30 13:19:54;;;;;;;1.55;0.63;;;18.10;47.40;;;;;;4990483;28;20046;-46
2022/09/30 13:22:56;;;;;;;1.67;0.70;;;18.10;47.80;;;;;;4985117;28;20686;-47
2022/09/30 13:25:23;;;;;;;2.90;0.75;;;18.20;47.30;;;;;;4985373;28;20054;-51